createdAt,value
2023-01-29T00:00:00.623Z,100.00
2023-01-29T00:01:08.578Z,100.00
2023-01-29T00:02:10.272Z,100.00
2023-01-29T00:03:11.968Z,100.00
2023-01-29T00:04:13.712Z,100.00
2023-01-29T00:05:27.053Z,100.00
2023-01-29T00:06:29.618Z,100.00
2023-01-29T00:07:31.164Z,100.00
2023-01-29T00:08:36.615Z,100.00
2023-01-29T00:09:38.257Z,100.00
2023-01-29T00:10:39.778Z,100.00
2023-01-29T00:11:41.527Z,100.00
2023-01-29T00:12:43.068Z,100.00
2023-01-29T00:13:44.569Z,100.00
2023-01-29T00:14:46.090Z,100.00
2023-01-29T00:15:55.043Z,100.00
2023-01-29T00:16:56.668Z,100.00
2023-01-29T00:17:58.245Z,100.00
2023-01-29T00:19:01.328Z,100.00
2023-01-29T00:20:02.895Z,100.00
2023-01-29T00:21:08.460Z,100.00
2023-01-29T00:22:09.975Z,100.00
2023-01-29T00:23:11.493Z,100.00
2023-01-29T00:24:13.135Z,100.00
2023-01-29T00:25:14.733Z,100.00
2023-01-29T00:26:17.238Z,100.00
2023-01-29T00:27:22.405Z,100.00
2023-01-29T00:28:23.972Z,100.00
2023-01-29T00:29:25.508Z,100.00
2023-01-29T00:30:27.109Z,100.00
2023-01-29T00:31:29.588Z,100.00
2023-01-29T00:32:32.266Z,100.00
2023-01-29T00:33:33.808Z,100.00
2023-01-29T00:34:35.345Z,100.00
2023-01-29T00:35:40.023Z,100.00
2023-01-29T00:36:41.614Z,100.00
2023-01-29T00:37:43.143Z,100.00
2023-01-29T00:38:46.432Z,100.00
2023-01-29T00:39:48.537Z,100.00
2023-01-29T00:40:50.153Z,100.00
2023-01-29T00:41:51.687Z,100.00
2023-01-29T00:42:53.218Z,100.00
2023-01-29T00:43:54.816Z,100.00
2023-01-29T00:44:56.469Z,100.00
2023-01-29T00:45:58.010Z,100.00
2023-01-29T00:46:59.917Z,100.00
2023-01-29T00:48:01.482Z,100.00
2023-01-29T00:49:03.719Z,100.00
2023-01-29T00:50:10.707Z,100.00
2023-01-29T00:51:12.613Z,100.00
2023-01-29T00:52:14.140Z,100.00
2023-01-29T00:53:15.682Z,100.00
2023-01-29T00:54:17.336Z,100.00
2023-01-29T00:55:19.049Z,100.00
2023-01-29T00:56:20.599Z,100.00
2023-01-29T00:57:24.039Z,100.00
2023-01-29T00:58:25.574Z,100.00
2023-01-29T00:59:27.266Z,100.00
2023-01-29T01:00:28.790Z,100.00
2023-01-29T01:01:30.321Z,100.00
2023-01-29T01:02:31.857Z,100.00
2023-01-29T01:03:33.393Z,100.00
2023-01-29T01:04:35.184Z,100.00
2023-01-29T01:05:36.803Z,100.00
2023-01-29T01:06:40.357Z,100.00
2023-01-29T01:07:41.963Z,100.00
2023-01-29T01:08:43.515Z,100.00
2023-01-29T01:09:45.063Z,100.00
2023-01-29T01:10:46.598Z,100.00
2023-01-29T01:11:48.214Z,100.00
2023-01-29T01:13:01.099Z,100.00
2023-01-29T01:14:02.665Z,100.00
2023-01-29T01:15:04.912Z,100.00
2023-01-29T01:16:14.313Z,100.00
2023-01-29T01:17:16.086Z,100.00
2023-01-29T01:18:17.626Z,100.00
2023-01-29T01:19:19.158Z,100.00
2023-01-29T01:20:20.846Z,100.00
2023-01-29T01:21:22.501Z,100.00
2023-01-29T01:22:24.044Z,100.00
2023-01-29T01:23:25.913Z,100.00
2023-01-29T01:24:27.591Z,100.00
2023-01-29T01:25:29.443Z,100.00
2023-01-29T01:26:31.263Z,100.00
2023-01-29T01:27:32.851Z,100.00
2023-01-29T01:28:34.393Z,100.00
2023-01-29T01:29:35.965Z,100.00
2023-01-29T01:30:37.598Z,100.00
2023-01-29T01:31:39.237Z,100.00
2023-01-29T01:32:41.472Z,100.00
2023-01-29T01:33:42.986Z,100.00
2023-01-29T01:34:44.551Z,100.00
2023-01-29T01:35:48.097Z,100.00
2023-01-29T01:36:49.823Z,100.00
2023-01-29T01:37:51.360Z,100.00
2023-01-29T01:38:53.218Z,100.00
2023-01-29T01:39:54.781Z,100.00
2023-01-29T01:40:56.356Z,100.00
2023-01-29T01:41:57.912Z,100.00
2023-01-29T01:43:00.563Z,100.00
2023-01-29T01:44:03.984Z,100.00
2023-01-29T01:45:14.666Z,100.00
2023-01-29T01:46:16.266Z,100.00
2023-01-29T01:47:23.353Z,100.00
2023-01-29T01:48:26.856Z,100.00
2023-01-29T01:49:28.436Z,100.00
2023-01-29T01:50:41.273Z,100.00
2023-01-29T01:51:47.006Z,100.00
2023-01-29T01:52:55.280Z,100.00
2023-01-29T01:54:08.104Z,100.00
2023-01-29T01:55:13.234Z,100.00
2023-01-29T01:56:21.451Z,100.00
2023-01-29T01:57:25.510Z,100.00
2023-01-29T01:58:40.765Z,100.00
2023-01-29T01:59:56.740Z,100.00
2023-01-29T02:00:58.363Z,100.00
2023-01-29T02:02:00.044Z,100.00
2023-01-29T02:03:02.522Z,100.00
2023-01-29T02:04:30.226Z,100.00
2023-01-29T02:05:34.305Z,100.00
2023-01-29T02:06:39.701Z,100.00
2023-01-29T02:07:44.140Z,100.00
2023-01-29T02:09:22.519Z,100.00
2023-01-29T02:10:24.145Z,100.00
2023-01-29T02:11:26.544Z,100.00
2023-01-29T02:12:28.119Z,100.00
2023-01-29T02:13:29.712Z,100.00
2023-01-29T02:14:31.658Z,100.00
2023-01-29T02:15:33.934Z,100.00
2023-01-29T02:16:37.659Z,100.00
2023-01-29T02:17:39.925Z,100.00
2023-01-29T02:18:41.529Z,100.00
2023-01-29T02:19:48.679Z,100.00
2023-01-29T02:21:20.083Z,100.00
2023-01-29T02:22:51.383Z,100.00
2023-01-29T02:23:52.906Z,100.00
2023-01-29T02:25:36.056Z,100.00
2023-01-29T02:26:55.672Z,100.00
2023-01-29T02:28:32.567Z,100.00
2023-01-29T02:29:59.218Z,100.00
2023-01-29T02:31:08.999Z,100.00
2023-01-29T02:32:29.327Z,100.00
2023-01-29T02:33:41.745Z,100.00
2023-01-29T02:35:10.809Z,100.00
2023-01-29T02:36:40.539Z,100.00
2023-01-29T02:37:54.318Z,100.00
2023-01-29T02:39:07.702Z,100.00
2023-01-29T02:40:27.304Z,100.00
2023-01-29T02:41:35.597Z,100.00
2023-01-29T02:42:57.053Z,100.00
2023-01-29T02:44:19.935Z,100.00
2023-01-29T02:45:30.266Z,100.00
2023-01-29T02:46:46.885Z,100.00
2023-01-29T02:47:56.497Z,100.00
2023-01-29T02:49:08.285Z,100.00
2023-01-29T02:50:29.179Z,100.00
2023-01-29T02:52:09.672Z,100.00
2023-01-29T02:53:18.789Z,100.00
2023-01-29T02:54:24.983Z,100.00
2023-01-29T02:55:33.120Z,100.00
2023-01-29T02:56:50.965Z,100.00
2023-01-29T02:57:59.598Z,100.00
2023-01-29T02:59:18.398Z,100.00
2023-01-29T03:00:27.826Z,100.00
2023-01-29T03:01:39.607Z,100.00
2023-01-29T03:02:41.001Z,100.00
2023-01-29T03:03:47.614Z,100.00
2023-01-29T03:04:54.420Z,100.00
2023-01-29T03:06:02.768Z,100.00
2023-01-29T03:07:09.893Z,100.00
2023-01-29T03:08:18.411Z,100.00
2023-01-29T03:09:28.226Z,100.00
2023-01-29T03:11:03.952Z,100.00
2023-01-29T03:12:13.320Z,100.00
2023-01-29T03:13:20.780Z,100.00
2023-01-29T03:14:49.818Z,100.00
2023-01-29T03:16:00.715Z,100.00
2023-01-29T03:17:11.655Z,100.00
2023-01-29T03:18:17.603Z,100.00
2023-01-29T03:19:31.853Z,100.00
2023-01-29T03:21:08.811Z,100.00
2023-01-29T03:22:13.113Z,100.00
2023-01-29T03:23:22.245Z,100.00
2023-01-29T03:24:58.598Z,100.00
2023-01-29T03:26:01.723Z,100.00
2023-01-29T03:27:09.541Z,100.00
2023-01-29T03:28:18.029Z,100.00
2023-01-29T03:29:21.927Z,100.00
2023-01-29T03:30:27.401Z,100.00
2023-01-29T03:31:38.325Z,100.00
2023-01-29T03:32:40.789Z,100.00
2023-01-29T03:33:49.302Z,100.00
2023-01-29T03:34:57.409Z,100.00
2023-01-29T03:36:09.004Z,100.00
2023-01-29T03:37:39.360Z,100.00
2023-01-29T03:38:41.038Z,100.00
2023-01-29T03:39:43.812Z,100.00
2023-01-29T03:40:55.661Z,100.00
2023-01-29T03:42:15.797Z,100.00
2023-01-29T03:43:28.553Z,100.00
2023-01-29T03:44:49.377Z,100.00
2023-01-29T03:46:02.055Z,100.00
2023-01-29T03:47:33.003Z,100.00
2023-01-29T03:48:37.124Z,100.00
2023-01-29T03:50:02.860Z,100.00
2023-01-29T03:51:16.961Z,100.00
2023-01-29T03:52:23.919Z,100.00
2023-01-29T03:53:40.921Z,100.00
2023-01-29T03:54:58.615Z,100.00
2023-01-29T03:56:08.821Z,100.00
2023-01-29T03:57:25.293Z,100.00
2023-01-29T03:58:55.789Z,100.00
2023-01-29T04:00:22.616Z,100.00
2023-01-29T04:01:53.433Z,100.00
2023-01-29T04:03:23.072Z,100.00
2023-01-29T04:04:30.626Z,100.00
2023-01-29T04:05:40.098Z,100.00
2023-01-29T04:07:05.513Z,100.00
2023-01-29T04:08:14.462Z,100.00
2023-01-29T04:09:23.195Z,100.00
2023-01-29T04:10:27.465Z,100.00
2023-01-29T04:11:31.075Z,100.00
2023-01-29T04:12:40.111Z,100.00
2023-01-29T04:13:43.144Z,100.00
2023-01-29T04:14:44.805Z,100.00
2023-01-29T04:15:53.065Z,100.00
2023-01-29T04:17:07.843Z,100.00
2023-01-29T04:18:15.440Z,100.00
2023-01-29T04:19:49.775Z,100.00
2023-01-29T04:20:51.953Z,100.00
2023-01-29T04:22:03.660Z,100.00
2023-01-29T04:23:06.418Z,100.00
2023-01-29T04:24:09.032Z,100.00
2023-01-29T04:25:13.581Z,100.00
2023-01-29T04:26:48.640Z,100.00
2023-01-29T04:28:10.962Z,100.00
2023-01-29T04:29:30.854Z,100.00
2023-01-29T04:30:39.179Z,100.00
2023-01-29T04:31:54.981Z,100.00
2023-01-29T04:33:23.744Z,100.00
2023-01-29T04:34:28.120Z,100.00
2023-01-29T04:35:44.219Z,100.00
2023-01-29T04:36:58.258Z,100.00
2023-01-29T04:38:05.339Z,100.00
2023-01-29T04:39:12.833Z,100.00
2023-01-29T04:40:28.610Z,100.00
2023-01-29T04:41:36.045Z,100.00
2023-01-29T04:42:43.495Z,100.00
2023-01-29T04:44:12.610Z,100.00
2023-01-29T04:45:27.103Z,100.00
2023-01-29T04:46:46.953Z,100.00
2023-01-29T04:48:03.130Z,100.00
2023-01-29T04:49:24.174Z,100.00
2023-01-29T04:50:36.011Z,100.00
2023-01-29T04:51:50.264Z,100.00
2023-01-29T04:53:07.194Z,100.00
2023-01-29T04:54:28.186Z,100.00
2023-01-29T04:55:36.242Z,100.00
2023-01-29T04:56:50.019Z,100.00
2023-01-29T04:58:13.286Z,100.00
2023-01-29T04:59:21.757Z,100.00
2023-01-29T05:00:33.539Z,100.00
2023-01-29T05:01:35.753Z,100.00
2023-01-29T05:02:39.856Z,100.00
2023-01-29T05:03:45.236Z,100.00
2023-01-29T05:04:48.258Z,100.00
2023-01-29T05:05:51.200Z,100.00
2023-01-29T05:06:53.293Z,100.00
2023-01-29T05:07:57.104Z,100.00
2023-01-29T05:09:00.806Z,100.00
2023-01-29T05:10:05.456Z,100.00
2023-01-29T05:11:07.560Z,100.00
2023-01-29T05:12:11.063Z,100.00
2023-01-29T05:13:14.926Z,100.00
2023-01-29T05:14:19.664Z,100.00
2023-01-29T05:15:26.800Z,100.00
2023-01-29T05:16:33.338Z,100.00
2023-01-29T05:17:35.188Z,100.00
2023-01-29T05:18:36.763Z,100.00
2023-01-29T05:19:38.536Z,100.00
2023-01-29T05:20:42.941Z,100.00
2023-01-29T05:21:49.732Z,100.00
2023-01-29T05:22:51.353Z,100.00
2023-01-29T05:24:14.353Z,100.00
2023-01-29T05:25:20.447Z,100.00
2023-01-29T05:26:22.174Z,100.00
2023-01-29T05:27:35.240Z,100.00
2023-01-29T05:28:36.805Z,100.00
2023-01-29T05:29:46.767Z,100.00
2023-01-29T05:30:51.022Z,100.00
2023-01-29T05:31:52.695Z,100.00
2023-01-29T05:32:54.240Z,100.00
2023-01-29T05:33:55.761Z,100.00
2023-01-29T05:34:57.281Z,100.00
2023-01-29T05:35:59.902Z,100.00
2023-01-29T05:37:01.472Z,100.00
2023-01-29T05:38:03.540Z,100.00
2023-01-29T05:39:05.059Z,100.00
2023-01-29T05:40:07.241Z,100.00
2023-01-29T05:41:08.782Z,100.00
2023-01-29T05:42:10.349Z,100.00
2023-01-29T05:43:20.584Z,100.00
2023-01-29T05:44:22.107Z,100.00
2023-01-29T05:45:23.639Z,100.00
2023-01-29T05:46:25.215Z,100.00
2023-01-29T05:47:26.794Z,100.00
2023-01-29T05:48:29.541Z,100.00
2023-01-29T05:49:31.108Z,100.00
2023-01-29T05:50:32.655Z,100.00
2023-01-29T05:51:34.219Z,100.00
2023-01-29T05:52:35.726Z,100.00
2023-01-29T05:53:37.274Z,100.00
2023-01-29T05:54:38.773Z,100.00
2023-01-29T05:55:40.325Z,100.00
2023-01-29T05:56:41.846Z,100.00
2023-01-29T05:57:43.382Z,100.00
2023-01-29T05:58:45.083Z,100.00
2023-01-29T05:59:46.580Z,100.00
2023-01-29T06:00:48.151Z,100.00
2023-01-29T06:01:49.742Z,100.00
2023-01-29T06:02:51.407Z,100.00
2023-01-29T06:03:52.978Z,100.00
2023-01-29T06:04:54.491Z,100.00
2023-01-29T06:05:55.983Z,100.00
2023-01-29T06:06:57.480Z,100.00
2023-01-29T06:07:59.066Z,100.00
2023-01-29T06:09:00.628Z,100.00
2023-01-29T06:10:03.606Z,100.00
2023-01-29T06:11:08.220Z,100.00
2023-01-29T06:12:09.849Z,100.00
2023-01-29T06:13:11.377Z,100.00
2023-01-29T06:14:12.918Z,100.00
2023-01-29T06:15:15.036Z,100.00
2023-01-29T06:16:16.710Z,100.00
2023-01-29T06:17:18.279Z,100.00
2023-01-29T06:18:19.864Z,100.00
2023-01-29T06:19:21.436Z,100.00
2023-01-29T06:20:23.422Z,100.00
2023-01-29T06:21:24.938Z,100.00
2023-01-29T06:22:26.490Z,100.00
2023-01-29T06:23:28.387Z,100.00
2023-01-29T06:24:29.948Z,100.00
2023-01-29T06:25:31.843Z,100.00
2023-01-29T06:26:33.384Z,100.00
2023-01-29T06:27:34.971Z,100.00
2023-01-29T06:28:36.502Z,100.00
2023-01-29T06:29:38.018Z,100.00
2023-01-29T06:30:39.584Z,100.00
2023-01-29T06:31:41.279Z,100.00
2023-01-29T06:32:42.950Z,100.00
2023-01-29T06:33:44.741Z,100.00
2023-01-29T06:34:48.629Z,100.00
2023-01-29T06:35:59.304Z,100.00
2023-01-29T06:37:00.869Z,100.00
2023-01-29T06:38:02.409Z,100.00
2023-01-29T06:39:04.587Z,100.00
2023-01-29T06:40:06.763Z,100.00
2023-01-29T06:41:12.734Z,100.00
2023-01-29T06:42:14.451Z,100.00
2023-01-29T06:43:16.075Z,100.00
2023-01-29T06:44:17.724Z,100.00
2023-01-29T06:45:19.403Z,100.00
2023-01-29T06:46:21.031Z,100.00
2023-01-29T06:47:23.627Z,100.00
2023-01-29T06:48:25.268Z,100.00
2023-01-29T06:49:26.855Z,100.00
2023-01-29T06:50:28.384Z,100.00
2023-01-29T06:51:30.100Z,100.00
2023-01-29T06:52:31.641Z,100.00
2023-01-29T06:53:34.102Z,100.00
2023-01-29T06:54:35.631Z,100.00
2023-01-29T06:55:37.373Z,100.00
2023-01-29T06:56:38.912Z,100.00
2023-01-29T06:57:40.414Z,100.00
2023-01-29T06:58:41.924Z,100.00
2023-01-29T06:59:43.451Z,100.00
2023-01-29T07:00:45.114Z,100.00
2023-01-29T07:01:46.765Z,100.00
2023-01-29T07:02:51.715Z,100.00
2023-01-29T07:03:53.372Z,100.00
2023-01-29T07:04:54.901Z,100.00
2023-01-29T07:05:56.435Z,100.00
2023-01-29T07:06:59.779Z,100.00
2023-01-29T07:08:01.311Z,100.00
2023-01-29T07:09:04.045Z,100.00
2023-01-29T07:10:06.143Z,100.00
2023-01-29T07:11:08.143Z,100.00
2023-01-29T07:12:10.724Z,100.00
2023-01-29T07:13:12.248Z,100.00
2023-01-29T07:14:13.757Z,100.00
2023-01-29T07:15:15.572Z,100.00
2023-01-29T07:16:17.243Z,100.00
2023-01-29T07:17:18.781Z,100.00
2023-01-29T07:18:20.297Z,100.00
2023-01-29T07:19:21.863Z,100.00
2023-01-29T07:20:25.333Z,100.00
2023-01-29T07:21:26.926Z,100.00
2023-01-29T07:22:28.428Z,100.00
2023-01-29T07:23:29.952Z,100.00
2023-01-29T07:24:31.552Z,100.00
2023-01-29T07:25:35.874Z,100.00
2023-01-29T07:26:37.424Z,100.00
2023-01-29T07:27:38.934Z,100.00
2023-01-29T07:28:40.974Z,100.00
2023-01-29T07:29:42.504Z,100.00
2023-01-29T07:30:44.063Z,100.00
2023-01-29T07:31:45.730Z,100.00
2023-01-29T07:32:47.336Z,100.00
2023-01-29T07:33:48.872Z,100.00
2023-01-29T07:34:50.425Z,100.00
2023-01-29T07:35:52.670Z,100.00
2023-01-29T07:36:54.254Z,100.00
2023-01-29T07:37:55.793Z,100.00
2023-01-29T07:38:57.342Z,100.00
2023-01-29T07:39:58.907Z,100.00
2023-01-29T07:41:02.272Z,100.00
2023-01-29T07:42:04.824Z,100.00
2023-01-29T07:43:07.704Z,100.00
2023-01-29T07:44:09.212Z,100.00
2023-01-29T07:45:11.426Z,100.00
2023-01-29T07:46:13.040Z,100.00
2023-01-29T07:47:16.997Z,100.00
2023-01-29T07:48:19.193Z,100.00
2023-01-29T07:49:20.861Z,100.00
2023-01-29T07:50:24.326Z,100.00
2023-01-29T07:51:25.847Z,100.00
2023-01-29T07:52:29.865Z,100.00
2023-01-29T07:53:31.435Z,100.00
2023-01-29T07:54:32.991Z,100.00
2023-01-29T07:55:34.548Z,100.00
2023-01-29T07:56:36.135Z,100.00
2023-01-29T07:57:37.672Z,100.00
2023-01-29T07:58:39.214Z,100.00
2023-01-29T07:59:40.726Z,100.00
2023-01-29T08:00:42.264Z,100.00
2023-01-29T08:01:43.791Z,100.00
2023-01-29T08:02:45.351Z,100.00
2023-01-29T08:03:46.877Z,100.00
2023-01-29T08:04:48.365Z,100.00
2023-01-29T08:05:49.916Z,100.00
2023-01-29T08:06:51.445Z,100.00
2023-01-29T08:08:05.775Z,100.00
2023-01-29T08:09:07.914Z,100.00
2023-01-29T08:10:09.990Z,100.00
2023-01-29T08:11:11.544Z,100.00
2023-01-29T08:12:13.108Z,100.00
2023-01-29T08:13:14.674Z,100.00
2023-01-29T08:14:16.241Z,100.00
2023-01-29T08:15:17.775Z,100.00
2023-01-29T08:16:19.332Z,100.00
2023-01-29T08:17:20.918Z,100.00
2023-01-29T08:18:22.479Z,100.00
2023-01-29T08:19:24.299Z,100.00
2023-01-29T08:20:25.997Z,100.00
2023-01-29T08:21:27.538Z,100.00
2023-01-29T08:22:29.117Z,100.00
2023-01-29T08:23:30.801Z,100.00
2023-01-29T08:24:47.453Z,100.00
2023-01-29T08:25:54.305Z,100.00
2023-01-29T08:26:56.027Z,100.00
2023-01-29T08:28:00.038Z,100.00
2023-01-29T08:29:01.740Z,100.00
2023-01-29T08:30:04.629Z,100.00
2023-01-29T08:31:13.921Z,100.00
2023-01-29T08:32:15.482Z,100.00
2023-01-29T08:33:19.424Z,100.00
2023-01-29T08:34:23.198Z,100.00
2023-01-29T08:35:25.450Z,100.00
2023-01-29T08:36:26.969Z,100.00
2023-01-29T08:37:28.495Z,100.00
2023-01-29T08:38:30.009Z,100.00
2023-01-29T08:39:33.631Z,100.00
2023-01-29T08:40:35.480Z,100.00
2023-01-29T08:41:37.055Z,100.00
2023-01-29T08:42:38.564Z,100.00
2023-01-29T08:43:40.102Z,100.00
2023-01-29T08:44:41.644Z,100.00
2023-01-29T08:45:44.341Z,100.00
2023-01-29T08:46:45.907Z,100.00
2023-01-29T08:47:49.295Z,100.00
2023-01-29T08:48:50.852Z,100.00
2023-01-29T08:49:52.402Z,100.00
2023-01-29T08:50:57.578Z,100.00
2023-01-29T08:51:59.103Z,100.00
2023-01-29T08:53:02.887Z,100.00
2023-01-29T08:54:04.442Z,100.00
2023-01-29T08:55:06.481Z,99.48
2023-01-29T08:56:08.569Z,98.36
2023-01-29T08:57:10.105Z,98.27
2023-01-29T08:58:12.161Z,97.91
2023-01-29T08:59:13.835Z,97.99
2023-01-29T09:00:16.118Z,96.35
2023-01-29T09:01:17.927Z,95.30
2023-01-29T09:02:19.547Z,94.12
2023-01-29T09:03:21.123Z,93.26
2023-01-29T09:04:22.703Z,93.06
2023-01-29T09:05:24.233Z,92.49
2023-01-29T09:06:25.757Z,92.48
2023-01-29T09:07:29.310Z,90.34
2023-01-29T09:08:30.834Z,89.06
2023-01-29T09:09:32.403Z,87.92
2023-01-29T09:10:34.455Z,87.96
2023-01-29T09:11:36.007Z,86.64
2023-01-29T09:12:37.672Z,84.94
2023-01-29T09:13:39.187Z,83.99
2023-01-29T09:14:40.742Z,84.14
2023-01-29T09:15:42.305Z,84.48
2023-01-29T09:16:43.852Z,83.29
2023-01-29T09:17:45.462Z,82.74
2023-01-29T09:18:47.012Z,83.15
2023-01-29T09:19:48.587Z,82.08
2023-01-29T09:20:50.140Z,80.38
2023-01-29T09:21:51.688Z,80.19
2023-01-29T09:22:53.205Z,80.31
2023-01-29T09:23:54.757Z,80.23
2023-01-29T09:24:56.343Z,80.09
2023-01-29T09:25:58.169Z,79.95
2023-01-29T09:26:59.755Z,80.91
2023-01-29T09:28:01.386Z,81.69
2023-01-29T09:29:02.913Z,82.05
2023-01-29T09:30:05.271Z,81.08
2023-01-29T09:31:06.959Z,80.37
2023-01-29T09:32:08.593Z,81.03
2023-01-29T09:33:10.323Z,82.26
2023-01-29T09:34:11.874Z,82.13
2023-01-29T09:35:13.437Z,82.56
2023-01-29T09:36:14.996Z,83.46
2023-01-29T09:37:16.620Z,84.60
2023-01-29T09:38:18.125Z,85.62
2023-01-29T09:39:19.655Z,87.04
2023-01-29T09:40:27.285Z,88.45
2023-01-29T09:41:56.395Z,88.61
2023-01-29T09:43:04.586Z,88.21
2023-01-29T09:44:19.219Z,85.92
2023-01-29T09:45:26.507Z,87.41
2023-01-29T09:46:40.447Z,86.55
2023-01-29T09:47:42.030Z,87.42
2023-01-29T09:48:45.258Z,88.75
2023-01-29T09:49:51.077Z,90.07
2023-01-29T09:50:55.752Z,86.59
2023-01-29T09:52:03.371Z,87.40
2023-01-29T09:53:19.933Z,88.47
2023-01-29T09:54:32.059Z,87.55
2023-01-29T09:55:37.200Z,87.22
2023-01-29T09:56:38.868Z,87.16
2023-01-29T09:57:58.387Z,88.28
2023-01-29T09:59:01.706Z,88.46
2023-01-29T10:00:03.950Z,88.72
2023-01-29T10:01:10.262Z,87.85
2023-01-29T10:02:17.716Z,88.63
2023-01-29T10:03:25.205Z,88.56
2023-01-29T10:04:45.104Z,88.11
2023-01-29T10:06:10.874Z,88.08
2023-01-29T10:07:56.797Z,87.01
2023-01-29T10:09:32.016Z,87.08
2023-01-29T10:10:51.555Z,86.86
2023-01-29T10:12:21.169Z,88.88
2023-01-29T10:13:44.720Z,88.59
2023-01-29T10:15:15.565Z,88.21
2023-01-29T10:16:26.055Z,90.61
2023-01-29T10:18:03.210Z,89.90
2023-01-29T10:19:31.988Z,88.42
2023-01-29T10:20:50.484Z,87.97
2023-01-29T10:22:00.752Z,87.87
2023-01-29T10:23:23.040Z,88.50
2023-01-29T10:24:44.765Z,86.90
2023-01-29T10:25:47.759Z,85.67
2023-01-29T10:26:51.710Z,84.62
2023-01-29T10:27:57.536Z,84.91
2023-01-29T10:29:01.291Z,83.98
2023-01-29T10:30:07.816Z,83.61
2023-01-29T10:31:15.245Z,82.70
2023-01-29T10:32:20.837Z,82.28
2023-01-29T10:33:49.408Z,81.30
2023-01-29T10:35:05.240Z,82.62
2023-01-29T10:36:18.651Z,83.39
2023-01-29T10:37:28.613Z,82.40
2023-01-29T10:38:50.241Z,82.21
2023-01-29T10:39:51.783Z,81.82
2023-01-29T10:41:04.815Z,82.60
2023-01-29T10:42:44.815Z,82.95
2023-01-29T10:43:49.141Z,82.30
2023-01-29T10:44:59.731Z,82.89
2023-01-29T10:46:19.191Z,81.97
2023-01-29T10:47:49.183Z,83.30
2023-01-29T10:49:06.137Z,83.68
2023-01-29T10:50:55.239Z,83.90
2023-01-29T10:51:56.728Z,83.64
2023-01-29T10:53:08.150Z,82.19
2023-01-29T10:54:34.932Z,82.71
2023-01-29T10:55:42.168Z,84.91
2023-01-29T10:56:51.141Z,84.57
2023-01-29T10:57:57.108Z,84.63
2023-01-29T10:59:03.980Z,84.93
2023-01-29T11:00:18.009Z,85.18
2023-01-29T11:01:19.641Z,83.97
2023-01-29T11:02:21.312Z,82.58
2023-01-29T11:03:31.475Z,82.43
2023-01-29T11:04:35.033Z,82.24
2023-01-29T11:05:44.299Z,82.94
2023-01-29T11:06:46.377Z,83.13
2023-01-29T11:07:49.363Z,83.14
2023-01-29T11:09:02.653Z,83.88
2023-01-29T11:10:11.722Z,82.41
2023-01-29T11:11:16.025Z,81.42
2023-01-29T11:12:24.036Z,82.02
2023-01-29T11:13:32.345Z,82.13
2023-01-29T11:14:48.759Z,83.50
2023-01-29T11:15:52.967Z,83.63
2023-01-29T11:16:55.447Z,84.13
2023-01-29T11:18:09.334Z,83.58
2023-01-29T11:19:11.383Z,82.22
2023-01-29T11:20:29.289Z,82.27
2023-01-29T11:21:30.842Z,82.55
2023-01-29T11:22:32.477Z,83.32
2023-01-29T11:23:34.145Z,85.13
2023-01-29T11:24:35.666Z,85.17
2023-01-29T11:25:37.245Z,84.45
2023-01-29T11:26:42.123Z,85.28
2023-01-29T11:27:46.601Z,84.62
2023-01-29T11:28:50.478Z,85.25
2023-01-29T11:29:55.683Z,83.62
2023-01-29T11:30:57.488Z,83.58
2023-01-29T11:32:00.715Z,82.85
2023-01-29T11:33:05.025Z,82.38
2023-01-29T11:34:18.315Z,82.89
2023-01-29T11:35:22.982Z,83.27
2023-01-29T11:36:32.547Z,85.86
2023-01-29T11:37:38.806Z,86.27
2023-01-29T11:38:40.341Z,87.00
2023-01-29T11:39:45.693Z,88.75
2023-01-29T11:40:47.331Z,89.14
2023-01-29T11:42:03.038Z,89.00
2023-01-29T11:43:43.207Z,89.59
2023-01-29T11:44:44.787Z,89.61
2023-01-29T11:45:48.119Z,88.40
2023-01-29T11:46:50.103Z,88.91
2023-01-29T11:47:56.658Z,89.31
2023-01-29T11:48:59.241Z,88.79
2023-01-29T11:50:20.294Z,87.75
2023-01-29T11:51:29.417Z,88.47
2023-01-29T11:52:40.915Z,88.59
2023-01-29T11:53:45.804Z,87.85
2023-01-29T11:54:52.735Z,89.42
2023-01-29T11:55:54.651Z,90.25
2023-01-29T11:56:56.931Z,89.78
2023-01-29T11:58:06.417Z,89.22
2023-01-29T11:59:36.175Z,89.40
2023-01-29T12:00:41.172Z,89.52
2023-01-29T12:01:42.752Z,89.71
2023-01-29T12:02:47.938Z,89.53
2023-01-29T12:03:52.815Z,89.05
2023-01-29T12:04:56.627Z,89.68
2023-01-29T12:06:03.254Z,89.36
2023-01-29T12:07:13.661Z,89.70
2023-01-29T12:08:18.673Z,90.20
2023-01-29T12:09:24.232Z,89.18
2023-01-29T12:10:34.356Z,88.43
2023-01-29T12:11:36.094Z,88.49
2023-01-29T12:12:41.430Z,88.29
2023-01-29T12:13:42.987Z,89.41
2023-01-29T12:14:44.553Z,88.75
2023-01-29T12:15:47.738Z,88.74
2023-01-29T12:16:58.532Z,87.33
2023-01-29T12:18:16.503Z,88.54
2023-01-29T12:19:45.396Z,88.82
2023-01-29T12:20:53.489Z,88.64
2023-01-29T12:22:03.030Z,89.36
2023-01-29T12:23:05.362Z,89.63
2023-01-29T12:24:41.598Z,90.38
2023-01-29T12:26:02.560Z,89.38
2023-01-29T12:27:12.026Z,89.51
2023-01-29T12:28:31.641Z,89.28
2023-01-29T12:29:55.041Z,88.98
2023-01-29T12:31:15.681Z,91.21
2023-01-29T12:32:35.186Z,90.56
2023-01-29T12:34:13.489Z,89.92
2023-01-29T12:35:27.021Z,90.34
2023-01-29T12:36:55.265Z,90.29
2023-01-29T12:38:02.740Z,89.14
2023-01-29T12:39:04.581Z,89.47
2023-01-29T12:40:19.301Z,89.26
2023-01-29T12:41:23.975Z,89.91
2023-01-29T12:42:25.918Z,91.17
2023-01-29T12:43:33.480Z,91.49
2023-01-29T12:44:45.624Z,92.11
2023-01-29T12:45:52.773Z,92.76
2023-01-29T12:46:58.053Z,93.04
2023-01-29T12:48:04.789Z,91.18
2023-01-29T12:49:15.468Z,90.55
2023-01-29T12:50:28.952Z,91.16
2023-01-29T12:51:39.741Z,92.17
2023-01-29T12:52:51.468Z,92.82
2023-01-29T12:53:57.997Z,92.70
2023-01-29T12:55:19.376Z,91.71
2023-01-29T12:56:32.759Z,91.67
2023-01-29T12:57:44.597Z,91.25
2023-01-29T12:58:50.591Z,91.05
2023-01-29T13:00:01.172Z,91.25
2023-01-29T13:01:23.163Z,89.66
2023-01-29T13:02:49.849Z,89.31
2023-01-29T13:04:36.361Z,91.38
2023-01-29T13:05:46.086Z,91.43
2023-01-29T13:07:00.429Z,90.77
2023-01-29T13:08:08.335Z,92.61
2023-01-29T13:09:16.992Z,92.88
2023-01-29T13:10:24.424Z,93.91
2023-01-29T13:11:37.934Z,93.78
2023-01-29T13:12:47.050Z,93.60
2023-01-29T13:14:00.554Z,93.59
2023-01-29T13:15:20.884Z,95.09
2023-01-29T13:16:27.218Z,95.58
2023-01-29T13:17:47.412Z,96.66
2023-01-29T13:18:59.420Z,97.26
2023-01-29T13:20:11.014Z,95.86
2023-01-29T13:21:19.127Z,96.99
2023-01-29T13:22:25.318Z,96.05
2023-01-29T13:24:04.919Z,95.66
2023-01-29T13:25:06.899Z,95.89
2023-01-29T13:26:08.682Z,96.06
2023-01-29T13:27:22.039Z,96.27
2023-01-29T13:28:26.679Z,96.48
2023-01-29T13:29:30.139Z,96.21
2023-01-29T13:30:35.690Z,96.94
2023-01-29T13:31:39.053Z,97.13
2023-01-29T13:32:41.530Z,97.36
2023-01-29T13:33:44.300Z,96.33
2023-01-29T13:34:48.161Z,96.06
2023-01-29T13:35:59.412Z,96.79
2023-01-29T13:37:09.517Z,96.93
2023-01-29T13:38:25.287Z,97.87
2023-01-29T13:39:29.679Z,96.54
2023-01-29T13:40:32.701Z,97.52
2023-01-29T13:41:39.816Z,97.31
2023-01-29T13:42:47.885Z,98.00
2023-01-29T13:43:50.223Z,98.33
2023-01-29T13:44:57.426Z,97.98
2023-01-29T13:46:08.448Z,98.68
2023-01-29T13:47:20.565Z,98.93
2023-01-29T13:48:26.988Z,100.00
2023-01-29T13:49:39.200Z,99.72
2023-01-29T13:50:42.897Z,99.38
2023-01-29T13:51:44.558Z,100.00
2023-01-29T13:52:54.407Z,100.00
2023-01-29T13:54:01.369Z,100.00
2023-01-29T13:55:43.360Z,100.00
2023-01-29T13:56:56.347Z,100.00
2023-01-29T13:57:59.882Z,100.00
2023-01-29T13:59:04.411Z,100.00
2023-01-29T14:00:06.875Z,100.00
2023-01-29T14:01:08.480Z,100.00
2023-01-29T14:02:29.630Z,100.00
2023-01-29T14:03:45.119Z,100.00
2023-01-29T14:05:12.422Z,100.00
2023-01-29T14:06:38.880Z,100.00
2023-01-29T14:07:43.391Z,100.00
2023-01-29T14:08:45.555Z,100.00